Time;durP1;ratioP1;P1;durP2;ratioP2;P2;SDS_P1;SDS_P2;PMS_P1;PMS_P2;Temp;Humidity;BMP_temperature;BMP_pressure;BME280_temperature;BME280_humidity;BME280_pressure;Samples;Min_cycle;Max_cycle;Signal;HPM_P1;HPM_P2
2023/01/09 00:00:52;;;;;;;2.00;1.02;;;8.50;99.90;;;-144.05;74.13;125687.94;5038327;28;20436;-75
2023/01/09 00:03:18;;;;;;;4.18;1.40;;;8.50;99.90;;;-144.05;75.79;125687.94;5055337;28;20025;-77
2023/01/09 00:05:44;;;;;;;3.90;1.20;;;8.50;99.90;;;-144.05;74.99;125687.94;5052459;28;20028;-77
2023/01/09 00:08:10;;;;;;;1.63;1.00;;;8.50;99.90;;;-144.05;75.35;125687.94;5056331;28;20170;-77
2023/01/09 00:10:36;;;;;;;3.97;1.38;;;8.50;99.90;;;-144.05;74.92;125687.94;5040083;28;20067;-77
2023/01/09 00:13:02;;;;;;;1.85;0.98;;;8.40;99.90;;;-144.05;75.23;125687.94;5057567;28;20029;-77
2023/01/09 00:15:28;;;;;;;1.77;1.23;;;8.40;99.90;;;-144.05;75.01;125687.94;5057694;28;20469;-75
2023/01/09 00:17:54;;;;;;;1.45;1.05;;;8.40;99.90;;;-144.05;75.40;125687.94;5057284;28;20043;-78
2023/01/09 00:20:19;;;;;;;1.67;0.70;;;8.30;99.90;;;-144.05;75.53;125687.94;5056413;28;20031;-78
2023/01/09 00:22:45;;;;;;;2.83;0.80;;;8.30;99.90;;;-144.05;75.73;125687.94;5056734;28;20025;-78
2023/01/09 00:25:11;;;;;;;0.90;0.55;;;8.30;99.90;;;-144.05;75.94;125687.94;5056659;28;20079;-78
2023/01/09 00:27:37;;;;;;;1.52;0.68;;;8.30;99.90;;;-144.05;75.87;125687.94;5054983;28;20029;-77
2023/01/09 00:30:04;;;;;;;1.20;0.70;;;8.20;99.90;;;-144.05;75.29;125687.94;5056691;28;20029;-78
2023/01/09 00:32:31;;;;;;;1.27;0.70;;;8.10;99.90;;;-144.05;75.11;125687.94;5052933;28;20032;-76
2023/01/09 00:34:57;;;;;;;0.60;0.60;;;8.20;99.90;;;-144.05;75.40;125687.94;5046724;28;20082;-77
2023/01/09 00:37:23;;;;;;;1.27;0.60;;;8.10;99.90;;;-144.05;75.76;125687.94;5056457;28;20033;-78
2023/01/09 00:39:49;;;;;;;1.00;0.90;;;8.10;99.90;;;-144.05;76.21;125687.94;5055342;28;20029;-76
2023/01/09 00:42:25;;;;;;;1.08;0.60;;;8.00;99.90;;;-144.05;75.79;125687.94;5054624;28;20025;-76
2023/01/09 00:45:02;;;;;;;2.20;0.60;;;8.00;99.90;;;-144.05;76.22;125687.94;5055672;28;20107;-76
2023/01/09 00:47:37;;;;;;;0.50;0.43;;;7.90;99.90;;;-144.05;76.44;125687.94;5058102;28;20452;-76
2023/01/09 00:50:13;;;;;;;0.98;0.50;;;7.90;99.90;;;-144.05;76.20;125687.94;5037228;28;20033;-77
2023/01/09 00:52:40;;;;;;;2.05;0.70;;;7.90;99.90;;;-144.05;76.73;125687.94;5038539;28;20549;-78
2023/01/09 00:55:08;;;;;;;0.82;0.50;;;7.80;99.90;;;-144.05;77.06;125687.94;5055100;28;20079;-77
2023/01/09 00:57:34;;;;;;;0.40;0.40;;;7.80;99.90;;;-144.05;77.33;125687.94;5038547;28;20033;-78
2023/01/09 01:00:01;;;;;;;2.30;0.60;;;7.70;99.90;;;-144.05;77.51;125687.94;5037322;28;20056;-78
2023/01/09 01:02:26;;;;;;;1.20;0.43;;;7.70;99.90;;;-144.05;77.01;125687.94;5056142;28;20033;-77
2023/01/09 01:07:37;;;;;;;1.83;0.50;;;7.70;99.90;;;-144.05;77.74;125687.94;5056307;28;20600;-79
2023/01/09 01:10:10;;;;;;;1.45;0.50;;;7.60;99.90;;;-144.05;77.54;125687.94;5054736;28;20044;-78
2023/01/09 01:12:38;;;;;;;1.38;1.02;;;7.60;99.90;;;-144.05;77.83;125687.94;5056252;28;20033;-77
2023/01/09 01:15:06;;;;;;;0.73;0.30;;;7.60;99.90;;;-144.05;77.69;125687.94;5059824;28;20029;-77
2023/01/09 01:17:39;;;;;;;0.52;0.30;;;7.50;99.90;;;-144.05;77.89;125687.94;5058575;28;20025;-78
2023/01/09 01:20:11;;;;;;;0.45;0.35;;;7.50;99.90;;;-144.05;77.93;125687.94;5038597;28;20063;-78
2023/01/09 01:22:37;;;;;;;3.20;0.50;;;7.50;99.90;;;-144.05;78.05;125687.94;5056638;28;20051;-78
2023/01/09 01:25:04;;;;;;;1.30;0.32;;;7.40;99.90;;;-144.05;78.36;125687.94;5057155;28;20460;-78
2023/01/09 01:27:30;;;;;;;1.38;0.45;;;7.40;99.90;;;-144.05;78.33;125687.94;5057064;28;20029;-78
2023/01/09 01:29:56;;;;;;;0.60;0.30;;;7.40;99.90;;;-144.05;78.36;125687.94;5056768;28;20115;-78
2023/01/09 01:32:23;;;;;;;0.40;0.30;;;7.40;99.90;;;-144.05;78.16;125687.94;5056619;28;20075;-78
2023/01/09 01:34:49;;;;;;;1.15;0.30;;;7.30;99.90;;;-144.05;78.47;125687.94;5056661;28;20032;-78
2023/01/09 01:37:14;;;;;;;0.20;0.20;;;7.30;99.90;;;-144.05;78.41;125687.94;5037888;28;20025;-77
2023/01/09 01:39:41;;;;;;;0.20;0.20;;;7.30;99.90;;;-144.05;78.49;125687.94;5056100;28;20024;-78
2023/01/09 01:42:07;;;;;;;1.77;0.40;;;7.30;99.90;;;-144.05;78.63;125687.94;5055618;28;20041;-79
2023/01/09 01:44:59;;;;;;;0.25;0.20;;;7.30;99.90;;;-144.05;78.21;125687.94;5055986;28;20092;-78
2023/01/09 01:47:45;;;;;;;0.38;0.38;;;7.40;99.90;;;-144.05;78.49;125687.94;5038267;28;20059;-79
2023/01/09 01:50:52;;;;;;;0.43;0.30;;;7.40;99.90;;;-144.05;78.30;125687.94;5053911;28;20445;-78
2023/01/09 01:53:32;;;;;;;1.75;0.35;;;7.40;99.90;;;-144.05;78.10;125687.94;5055894;28;20088;-79
2023/01/09 01:56:15;;;;;;;1.00;0.43;;;7.40;99.90;;;-144.05;78.13;125687.94;5055108;28;20021;-78
2023/01/09 01:59:02;;;;;;;0.80;0.30;;;7.40;99.90;;;-144.05;78.02;125687.94;5055122;28;20032;-77
2023/01/09 02:01:29;;;;;;;0.30;0.30;;;7.40;99.90;;;-144.05;77.65;125687.94;5057432;28;20029;-78
2023/01/09 02:04:00;;;;;;;0.70;0.50;;;7.40;99.90;;;-144.05;77.37;125687.94;5038439;28;20033;-78
2023/01/09 02:06:32;;;;;;;1.75;1.05;;;7.40;99.90;;;-144.05;76.92;125687.94;5055650;28;20041;-78
2023/01/09 02:08:58;;;;;;;2.78;0.60;;;7.40;99.90;;;-144.05;76.27;125687.94;5054078;28;20064;-78
2023/01/09 02:11:24;;;;;;;0.52;0.40;;;7.40;99.90;;;-144.05;76.07;125687.94;5056204;28;20488;-78
2023/01/09 02:13:51;;;;;;;0.70;0.52;;;7.50;99.90;;;-144.05;75.38;125687.94;5056447;28;20044;-78
2023/01/09 02:17:16;;;;;;;6.78;0.63;;;7.40;99.90;;;-144.05;74.73;125687.94;5038842;28;20048;-77
2023/01/09 02:20:42;;;;;;;0.52;0.35;;;7.50;99.90;;;-144.05;74.15;125687.94;5055711;28;20100;-78
2023/01/09 02:23:50;;;;;;;2.53;0.50;;;7.40;99.90;;;-144.05;74.32;125687.94;5055102;28;20029;-79
2023/01/09 02:26:56;;;;;;;0.77;0.50;;;7.40;99.90;;;-144.05;74.63;125687.94;5037350;28;20130;-77
2023/01/09 02:29:57;;;;;;;1.55;0.57;;;7.40;99.90;;;-144.05;74.48;125687.94;5054173;28;20033;-75
2023/01/09 02:33:27;;;;;;;2.50;0.50;;;7.30;99.90;;;-144.05;75.06;125687.94;5033673;28;20033;-75
2023/01/09 02:36:35;;;;;;;1.90;0.55;;;7.40;99.90;;;-144.05;75.40;125687.94;5052351;28;20086;-78
2023/01/09 02:39:34;;;;;;;1.75;0.60;;;7.30;99.90;;;-144.05;75.39;125687.94;5052211;28;20021;-78
2023/01/09 02:42:22;;;;;;;1.55;0.30;;;7.30;99.90;;;-144.05;74.84;125687.94;5052781;28;20538;-77
2023/01/09 02:44:49;;;;;;;2.50;0.63;;;7.40;99.90;;;-144.05;75.05;125687.94;5052328;28;20039;-76
2023/01/09 02:47:15;;;;;;;1.50;0.85;;;7.40;99.90;;;-144.05;75.01;125687.94;5035373;28;20510;-77
2023/01/09 02:50:04;;;;;;;2.67;0.73;;;7.30;99.90;;;-144.05;74.78;125687.94;5034937;28;20028;-77
2023/01/09 02:53:40;;;;;;;3.17;0.60;;;7.30;99.90;;;-144.05;74.80;125687.94;5054083;28;20076;-78
2023/01/09 02:56:35;;;;;;;0.55;0.45;;;7.30;99.90;;;-144.05;75.03;125687.94;5053137;28;20040;-76
2023/01/09 02:59:49;;;;;;;0.82;0.50;;;7.30;99.90;;;-144.05;74.71;125687.94;5068994;28;20029;-76
2023/01/09 03:02:56;;;;;;;2.17;0.47;;;7.30;99.90;;;-144.05;74.78;125687.94;5057371;28;20045;-75
2023/01/09 03:06:02;;;;;;;1.15;0.60;;;7.20;99.90;;;-144.05;75.61;125687.94;5053807;28;20466;-78
2023/01/09 03:08:44;;;;;;;1.70;0.70;;;7.10;99.90;;;-144.05;75.94;125687.94;5035135;28;20029;-77
2023/01/09 03:11:11;;;;;;;1.67;0.70;;;7.00;99.90;;;-144.05;75.84;125687.94;5053383;28;20028;-76
2023/01/09 03:13:57;;;;;;;4.18;0.75;;;7.00;99.90;;;-144.05;75.85;125687.94;5053793;28;20033;-77
2023/01/09 03:16:34;;;;;;;;;;;7.00;99.90;;;-144.05;75.34;125687.94;5055644;28;20075;-77
2023/01/09 03:19:05;;;;;;;;;;;6.90;99.90;;;-144.05;75.63;125687.94;5054016;28;19985;-79
2023/01/09 03:21:33;;;;;;;3.08;1.30;;;6.80;99.90;;;-144.05;75.63;125687.94;5052434;28;19912;-75
2023/01/09 03:24:01;;;;;;;2.05;1.00;;;6.80;99.90;;;-144.05;75.45;125687.94;5053521;28;20060;-76
2023/01/09 03:26:28;;;;;;;5.75;1.88;;;6.70;99.90;;;-144.05;75.99;125687.94;5054623;28;20025;-76
2023/01/09 03:28:55;;;;;;;2.80;1.25;;;6.70;99.90;;;-144.05;76.49;125687.94;5052951;28;20099;-77
2023/01/09 03:31:22;;;;;;;4.03;1.13;;;6.70;99.90;;;-144.05;76.66;125687.94;5053417;28;20362;-76
2023/01/09 03:33:48;;;;;;;1.75;1.00;;;6.70;99.90;;;-144.05;76.43;125687.94;5037686;28;20056;-77
2023/01/09 03:36:20;;;;;;;4.10;1.17;;;6.80;99.90;;;-144.05;76.97;125687.94;5037888;28;20029;-76
2023/01/09 03:38:46;;;;;;;2.42;1.45;;;6.90;99.90;;;-144.05;77.06;125687.94;5055434;28;20028;-78
2023/01/09 03:41:12;;;;;;;7.15;1.65;;;6.90;99.90;;;-144.05;76.55;125687.94;5059471;28;20036;-76
2023/01/09 03:43:38;;;;;;;2.33;1.40;;;7.00;99.90;;;-144.05;75.88;125687.94;5065470;28;20507;-78
2023/01/09 03:46:04;;;;;;;3.38;1.40;;;7.10;99.90;;;-144.05;76.07;125687.94;5042002;28;20029;-76
2023/01/09 03:48:30;;;;;;;4.47;1.60;;;7.10;99.90;;;-144.05;75.85;125687.94;5057189;28;20044;-77
2023/01/09 03:53:27;;;;;;;3.38;1.73;;;7.20;99.90;;;-144.05;75.72;125687.94;5077344;28;20056;-78
2023/01/09 03:55:56;;;;;;;4.80;1.85;;;7.20;99.90;;;-144.05;75.71;125687.94;5078277;28;20477;-80
2023/01/09 03:58:24;;;;;;;3.38;1.75;;;7.20;99.90;;;-144.05;75.68;125687.94;5077169;28;20448;-82
2023/01/09 04:00:59;;;;;;;2.28;1.70;;;7.20;99.90;;;-144.05;75.54;125687.94;5055878;28;20040;-79
2023/01/09 04:03:25;;;;;;;4.18;2.15;;;7.20;99.90;;;-144.05;76.07;125687.94;5058039;28;20025;-80
2023/01/09 04:05:51;;;;;;;4.32;2.13;;;7.20;99.90;;;-144.05;75.65;125687.94;5057572;28;20142;-81
2023/01/09 04:08:18;;;;;;;4.95;1.90;;;7.20;99.90;;;-144.05;75.31;125687.94;5057075;28;20447;-82
2023/01/09 04:10:49;;;;;;;7.18;1.90;;;7.20;99.90;;;-144.05;74.85;125687.94;5057331;28;20491;-81
2023/01/09 04:13:15;;;;;;;2.85;1.90;;;7.20;99.90;;;-144.05;74.91;125687.94;5056618;28;20029;-78
2023/01/09 04:15:42;;;;;;;2.22;1.60;;;7.20;99.90;;;-144.05;74.70;125687.94;5039006;28;20025;-80
2023/01/09 04:18:08;;;;;;;4.50;1.90;;;7.20;99.90;;;-144.05;74.48;125687.94;5037827;28;20029;-81
2023/01/09 04:20:34;;;;;;;3.17;1.73;;;7.20;99.90;;;-144.05;74.26;125687.94;5056447;28;20021;-78
2023/01/09 04:23:00;;;;;;;3.92;1.55;;;7.20;99.90;;;-144.05;74.29;125687.94;5059326;28;20024;-78
2023/01/09 04:25:26;;;;;;;5.10;1.70;;;7.20;99.90;;;-144.05;74.14;125687.94;5056296;28;20143;-82
2023/01/09 04:27:53;;;;;;;5.57;1.38;;;7.20;99.90;;;-144.05;73.82;125687.94;5037628;28;20366;-79
2023/01/09 04:30:19;;;;;;;3.38;1.42;;;7.20;99.90;;;-144.05;73.03;125687.94;5055015;28;20116;-81
2023/01/09 04:32:45;;;;;;;7.03;1.33;;;7.20;99.90;;;-144.05;73.10;125687.94;5055258;28;20048;-81
2023/01/09 04:35:11;;;;;;;2.63;2.08;;;7.20;99.90;;;-144.05;72.57;125687.94;5055676;28;20025;-81
2023/01/09 04:37:38;;;;;;;5.10;1.60;;;7.20;99.90;;;-144.05;72.66;125687.94;5055888;28;20033;-80
2023/01/09 04:40:09;;;;;;;3.38;1.55;;;7.20;99.90;;;-144.05;72.41;125687.94;5055081;28;20129;-78
2023/01/09 04:42:36;;;;;;;5.82;1.48;;;7.20;99.90;;;-144.05;72.33;125687.94;5056193;28;20056;-80
2023/01/09 04:45:05;;;;;;;4.15;1.45;;;7.20;99.90;;;-144.05;72.76;125687.94;5056484;28;20400;-80
2023/01/09 04:47:31;;;;;;;5.65;1.75;;;7.10;99.90;;;-144.05;72.76;125687.94;5055694;28;20471;-80
2023/01/09 04:49:58;;;;;;;5.65;1.60;;;7.00;99.90;;;-144.05;72.27;125687.94;5055119;28;20112;-81
2023/01/09 04:52:25;;;;;;;5.50;1.58;;;7.00;99.90;;;-144.05;72.29;125687.94;5036566;28;20032;-79
2023/01/09 04:54:51;;;;;;;4.72;1.58;;;6.90;99.90;;;-144.05;72.20;125687.94;5036949;28;20025;-80
2023/01/09 04:57:17;;;;;;;2.47;1.20;;;6.90;99.90;;;-144.05;72.29;125687.94;5037081;28;20033;-81
2023/01/09 04:59:43;;;;;;;2.90;1.40;;;6.80;99.90;;;-144.05;72.20;125687.94;5037212;28;20053;-81
2023/01/09 05:02:10;;;;;;;5.32;1.75;;;6.70;99.90;;;-144.05;72.41;125687.94;5055358;28;20063;-81
2023/01/09 05:04:36;;;;;;;7.63;1.88;;;6.70;99.90;;;-144.05;72.89;125687.94;5054945;28;20110;-79
2023/01/09 05:07:02;;;;;;;7.22;1.65;;;6.60;99.90;;;-144.05;72.47;125687.94;5057863;28;20025;-79
2023/01/09 05:09:28;;;;;;;3.92;1.60;;;6.50;99.90;;;-144.05;72.60;125687.94;5055084;28;20029;-79
2023/01/09 05:11:54;;;;;;;7.78;2.00;;;6.40;99.90;;;-144.05;73.14;125687.94;5055147;28;20105;-80
2023/01/09 05:14:20;;;;;;;6.75;1.85;;;6.30;99.90;;;-144.05;73.15;125687.94;5053586;28;20036;-81
2023/01/09 05:16:46;;;;;;;8.25;2.58;;;6.30;99.90;;;-144.05;73.55;125687.94;5055173;28;20242;-81
2023/01/09 05:19:12;;;;;;;10.70;2.40;;;6.30;99.90;;;-144.05;73.42;125687.94;5053445;28;20025;-80
2023/01/09 05:21:38;;;;;;;12.68;2.05;;;6.30;99.90;;;-144.05;73.36;125687.94;5056995;28;20025;-82
2023/01/09 05:24:04;;;;;;;7.10;1.80;;;6.20;99.90;;;-144.05;73.74;125687.94;5057007;28;20102;-81
2023/01/09 05:26:30;;;;;;;6.78;2.00;;;6.20;99.90;;;-144.05;73.18;125687.94;5055499;28;20032;-82
2023/01/09 05:28:56;;;;;;;6.78;1.70;;;6.20;99.90;;;-144.05;73.08;125687.94;5054799;28;20424;-81
2023/01/09 05:31:25;;;;;;;4.13;1.58;;;6.20;99.90;;;-144.05;73.47;125687.94;5055759;28;20071;-82
2023/01/09 05:33:52;;;;;;;5.88;2.10;;;6.20;99.90;;;-144.05;73.49;125687.94;5039377;28;20029;-80
2023/01/09 05:36:18;;;;;;;4.13;1.60;;;6.20;99.90;;;-144.05;73.13;125687.94;5056055;28;20460;-81
2023/01/09 05:38:44;;;;;;;5.60;2.55;;;6.20;99.90;;;-144.05;73.79;125687.94;5056528;28;20545;-81
2023/01/09 05:41:10;;;;;;;5.40;1.73;;;6.20;99.90;;;-144.05;73.31;125687.94;5056491;28;20057;-82
2023/01/09 05:43:36;;;;;;;6.63;1.98;;;6.30;99.90;;;-144.05;73.72;125687.94;5055624;28;20029;-83
2023/01/09 05:46:02;;;;;;;7.32;2.53;;;6.30;99.90;;;-144.05;73.12;125687.94;5056504;28;20071;-83
2023/01/09 05:48:28;;;;;;;8.07;2.22;;;6.40;99.90;;;-144.05;72.95;125687.94;5054808;28;20373;-81
2023/01/09 05:50:54;;;;;;;4.30;1.90;;;6.40;99.90;;;-144.05;72.77;125687.94;5054561;28;20025;-82
2023/01/09 05:53:20;;;;;;;5.43;1.85;;;6.50;99.90;;;-144.05;72.63;125687.94;5054627;28;20064;-83
2023/01/09 05:55:46;;;;;;;8.18;2.20;;;6.50;99.90;;;-144.05;72.04;125687.94;5055045;28;20044;-80
2023/01/09 05:58:12;;;;;;;6.85;2.20;;;6.60;99.90;;;-144.05;72.14;125687.94;5054473;28;20452;-81
2023/01/09 06:00:38;;;;;;;9.82;1.70;;;6.60;99.90;;;-144.05;71.77;125687.94;5054885;28;20056;-82
2023/01/09 06:03:04;;;;;;;3.20;1.27;;;6.70;99.90;;;-144.05;71.58;125687.94;5055962;28;20028;-80
2023/01/09 06:05:29;;;;;;;4.85;1.17;;;6.70;99.90;;;-144.05;71.15;125687.94;5037012;28;20031;-79
2023/01/09 06:07:55;;;;;;;5.47;1.13;;;6.70;99.90;;;-144.05;70.95;125687.94;5055943;28;20122;-83
2023/01/09 06:10:21;;;;;;;5.65;1.50;;;6.70;99.90;;;-144.05;71.29;125687.94;5054554;28;20051;-81
2023/01/09 06:12:51;;;;;;;5.25;1.10;;;6.70;99.90;;;-144.05;70.97;125687.94;5036827;28;20021;-80
2023/01/09 06:15:19;;;;;;;5.45;1.30;;;6.70;99.90;;;-144.05;70.59;125687.94;5054854;28;20283;-81
2023/01/09 06:17:45;;;;;;;5.45;1.13;;;6.80;99.90;;;-144.05;70.64;125687.94;5036519;28;20385;-82
2023/01/09 06:20:11;;;;;;;7.10;1.10;;;6.80;99.90;;;-144.05;70.53;125687.94;5055187;28;20029;-82
2023/01/09 06:22:37;;;;;;;4.82;1.02;;;6.80;99.90;;;-144.05;70.27;125687.94;5053839;28;20116;-81
2023/01/09 06:25:04;;;;;;;7.78;2.05;;;6.80;99.90;;;-144.05;69.87;125687.94;5037978;28;20396;-83
2023/01/09 06:27:30;;;;;;;3.97;1.13;;;6.80;99.90;;;-144.05;69.80;125687.94;5036657;28;20025;-80
2023/01/09 06:29:56;;;;;;;4.20;1.20;;;6.80;99.90;;;-144.05;69.82;125687.94;5053761;28;20512;-81
2023/01/09 06:32:22;;;;;;;4.78;1.98;;;6.80;99.90;;;-144.05;69.21;125687.94;5052993;28;20076;-82
2023/01/09 06:34:48;;;;;;;8.85;0.90;;;6.90;99.90;;;-144.05;69.18;125687.94;5054738;28;20392;-83
2023/01/09 06:37:13;;;;;;;5.55;1.30;;;6.90;99.90;;;-144.05;69.45;125687.94;5036960;28;20119;-80
2023/01/09 06:39:39;;;;;;;4.97;1.23;;;6.80;99.90;;;-144.05;69.64;125687.94;5054331;28;20053;-82
2023/01/09 06:42:05;;;;;;;7.95;1.40;;;6.80;99.90;;;-144.05;70.16;125687.94;5036502;28;20035;-79
2023/01/09 06:44:32;;;;;;;5.28;1.20;;;6.80;99.90;;;-144.05;70.34;125687.94;5035427;28;20150;-81
2023/01/09 06:46:58;;;;;;;3.63;1.30;;;6.90;99.90;;;-144.05;70.70;125687.94;5034522;28;20029;-80
2023/01/09 06:49:24;;;;;;;6.53;1.55;;;6.80;99.90;;;-144.05;70.74;125687.94;5052535;28;20071;-80
2023/01/09 06:51:50;;;;;;;7.05;1.50;;;6.80;99.90;;;-144.05;71.26;125687.94;5035275;28;20029;-81
2023/01/09 06:54:19;;;;;;;3.80;1.30;;;6.80;99.90;;;-144.05;70.91;125687.94;5035394;28;20028;-82
2023/01/09 06:56:45;;;;;;;2.88;0.98;;;6.80;99.90;;;-144.05;71.57;125687.94;5053300;28;20029;-83
2023/01/09 06:59:12;;;;;;;4.10;1.30;;;6.70;99.90;;;-144.05;71.78;125687.94;5035727;28;20509;-80
2023/01/09 07:01:38;;;;;;;6.53;1.42;;;6.70;99.90;;;-144.05;72.26;125687.94;5052462;28;20121;-81
2023/01/09 07:04:11;;;;;;;6.22;1.48;;;6.70;99.90;;;-144.05;72.49;125687.94;5053192;28;20025;-80
2023/01/09 07:06:37;;;;;;;5.57;1.45;;;6.70;99.90;;;-144.05;72.98;125687.94;5035087;28;20439;-83
2023/01/09 07:09:04;;;;;;;4.22;1.27;;;6.60;99.90;;;-144.05;73.82;125687.94;5052587;28;20029;-79
2023/01/09 07:11:31;;;;;;;6.30;1.10;;;6.60;99.90;;;-144.05;73.83;125687.94;5052557;28;20029;-81
2023/01/09 07:13:57;;;;;;;7.80;1.45;;;6.60;99.90;;;-144.05;74.37;125687.94;5053497;28;20024;-81
2023/01/09 07:16:23;;;;;;;3.88;1.10;;;6.60;99.90;;;-144.05;73.84;125687.94;5053164;28;20025;-81
2023/01/09 07:18:49;;;;;;;4.18;0.98;;;6.60;99.90;;;-144.05;74.21;125687.94;5039305;28;20131;-80
2023/01/09 07:21:15;;;;;;;6.57;1.10;;;6.50;99.90;;;-144.05;74.04;125687.94;5055480;28;20035;-79
2023/01/09 07:23:41;;;;;;;3.75;1.20;;;6.60;99.90;;;-144.05;73.70;125687.94;5039586;28;20029;-80
2023/01/09 07:26:07;;;;;;;4.45;1.13;;;6.50;99.90;;;-144.05;74.12;125687.94;5057502;28;20033;-79
2023/01/09 07:28:33;;;;;;;3.47;0.90;;;6.50;99.90;;;-144.05;74.02;125687.94;5057119;28;20037;-80
2023/01/09 07:31:01;;;;;;;6.57;1.30;;;6.50;99.90;;;-144.05;74.33;125687.94;5056512;28;20533;-80
2023/01/09 07:33:27;;;;;;;5.57;1.60;;;6.50;99.90;;;-144.05;74.79;125687.94;5057606;28;20025;-80
2023/01/09 07:35:53;;;;;;;6.70;1.27;;;6.50;99.90;;;-144.05;74.59;125687.94;5056896;28;20079;-81
2023/01/09 07:38:19;;;;;;;4.13;1.23;;;6.50;99.90;;;-144.05;74.09;125687.94;5057480;28;20456;-80
2023/01/09 07:40:45;;;;;;;3.33;0.90;;;6.60;99.90;;;-144.05;74.07;125687.94;5056706;28;20033;-80
2023/01/09 07:43:10;;;;;;;5.20;0.90;;;6.50;99.90;;;-144.05;73.80;125687.94;5058544;28;20504;-80
2023/01/09 07:45:36;;;;;;;2.97;0.93;;;6.60;99.90;;;-144.05;73.62;125687.94;5057379;28;20053;-77
2023/01/09 07:48:02;;;;;;;3.30;0.93;;;6.60;99.90;;;-144.05;73.63;125687.94;5062695;28;20040;-79
2023/01/09 07:50:28;;;;;;;4.10;1.00;;;6.60;99.90;;;-144.05;73.27;125687.94;5069274;28;20083;-79
2023/01/09 07:52:54;;;;;;;3.65;0.95;;;6.60;99.90;;;-144.05;73.27;125687.94;5051313;28;20032;-80
2023/01/09 07:55:20;;;;;;;6.20;1.20;;;6.70;99.90;;;-144.05;73.05;125687.94;5062472;28;20036;-82
2023/01/09 07:57:50;;;;;;;1.92;0.90;;;6.60;99.90;;;-144.05;73.04;125687.94;5058110;28;20029;-81
2023/01/09 08:00:19;;;;;;;5.88;1.10;;;6.70;99.90;;;-144.05;73.36;125687.94;5058209;28;20028;-80
2023/01/09 08:02:51;;;;;;;4.03;1.02;;;6.70;99.90;;;-144.05;73.27;125687.94;5057826;28;20025;-80
2023/01/09 08:05:18;;;;;;;7.90;1.60;;;6.70;99.90;;;-144.05;73.61;125687.94;5039673;28;20403;-80
2023/01/09 08:07:44;;;;;;;5.25;1.10;;;6.70;99.90;;;-144.05;73.88;125687.94;5057677;28;20025;-79
2023/01/09 08:10:11;;;;;;;4.45;0.98;;;6.80;99.90;;;-144.05;73.96;125687.94;5040036;28;20040;-82
2023/01/09 08:12:42;;;;;;;4.35;1.10;;;6.70;99.90;;;-144.05;73.94;125687.94;5059014;28;20025;-78
2023/01/09 08:15:08;;;;;;;7.88;1.25;;;6.70;99.90;;;-144.05;74.08;125687.94;5040454;28;20033;-80
2023/01/09 08:17:34;;;;;;;11.65;1.40;;;6.60;99.90;;;-144.05;74.33;125687.94;5058742;28;20170;-80
2023/01/09 08:20:00;;;;;;;4.72;0.93;;;6.60;99.90;;;-144.05;74.39;125687.94;5057574;28;20068;-79
2023/01/09 08:22:26;;;;;;;5.10;1.08;;;6.50;99.90;;;-144.05;73.90;125687.94;5056860;28;20060;-79
2023/01/09 08:24:52;;;;;;;4.18;0.90;;;6.60;99.90;;;-144.05;74.12;125687.94;5040605;28;20048;-78
2023/01/09 08:27:17;;;;;;;5.53;1.25;;;6.60;99.90;;;-144.05;73.68;125687.94;5058014;28;20028;-79
2023/01/09 08:29:43;;;;;;;2.40;1.00;;;6.70;99.90;;;-144.05;73.44;125687.94;5039145;28;20476;-80
2023/01/09 08:32:09;;;;;;;5.75;1.17;;;6.70;99.90;;;-144.05;73.54;125687.94;5057357;28;20264;-81
2023/01/09 08:34:35;;;;;;;3.92;1.05;;;6.70;99.90;;;-144.05;73.26;125687.94;5055921;28;20029;-79
2023/01/09 08:37:01;;;;;;;5.80;1.40;;;6.80;99.90;;;-144.05;73.20;125687.94;5057682;28;20092;-79
2023/01/09 08:39:26;;;;;;;6.18;1.10;;;6.90;99.90;;;-144.05;73.18;125687.94;5058969;28;20029;-81
2023/01/09 08:47:23;;;;;;;7.47;1.42;;;7.00;99.90;;;-144.05;73.78;125687.94;5058233;28;20087;-78
2023/01/09 08:49:49;;;;;;;5.07;1.23;;;7.00;99.90;;;-144.05;74.58;125687.94;5038760;28;20403;-80
2023/01/09 08:52:15;;;;;;;5.97;1.80;;;7.00;99.90;;;-144.05;75.08;125687.94;5056097;28;20033;-79
2023/01/09 08:54:41;;;;;;;5.53;1.00;;;7.00;99.90;;;-144.05;74.66;125687.94;5055901;28;20112;-79
2023/01/09 08:57:07;;;;;;;5.35;1.08;;;7.00;99.90;;;-144.05;74.71;125687.94;5056346;28;20505;-81
2023/01/09 08:59:33;;;;;;;4.75;1.00;;;7.20;99.90;;;-144.05;74.78;125687.94;5054796;28;20033;-79
2023/01/09 09:02:00;;;;;;;7.25;0.95;;;7.30;99.90;;;-144.05;73.85;125687.94;5057540;28;20368;-78
2023/01/09 09:04:26;;;;;;;4.45;0.90;;;7.40;99.90;;;-144.05;73.85;125687.94;5057648;28;20072;-81
2023/01/09 09:06:52;;;;;;;5.80;0.82;;;7.30;99.90;;;-144.05;73.43;125687.94;5058056;28;20029;-79
2023/01/09 09:09:18;;;;;;;3.38;1.02;;;7.30;99.90;;;-144.05;73.82;125687.94;5057804;28;20025;-78
2023/01/09 09:11:44;;;;;;;3.75;1.13;;;7.30;99.90;;;-144.05;74.71;125687.94;5056459;28;20127;-80
2023/01/09 09:16:54;;;;;;;5.47;1.35;;;7.20;99.90;;;-144.05;74.90;125687.94;5058074;28;20044;-80
2023/01/09 09:19:20;;;;;;;3.67;1.48;;;7.20;99.90;;;-144.05;74.78;125687.94;5057794;28;20025;-79
2023/01/09 09:21:46;;;;;;;3.15;0.70;;;7.20;99.90;;;-144.05;74.83;125687.94;5057770;28;20091;-81
2023/01/09 09:24:12;;;;;;;3.03;0.82;;;7.20;99.90;;;-144.05;74.95;125687.94;5058452;28;20091;-78
2023/01/09 09:26:38;;;;;;;2.92;1.00;;;7.10;99.90;;;-144.05;75.22;125687.94;5041126;28;20024;-79
2023/01/09 09:29:04;;;;;;;8.13;1.50;;;7.10;99.90;;;-144.05;75.44;125687.94;5057288;28;20021;-79
2023/01/09 09:31:30;;;;;;;4.82;1.00;;;7.10;99.90;;;-144.05;75.60;125687.94;5060560;28;20025;-79
2023/01/09 09:33:56;;;;;;;4.10;0.70;;;7.10;99.90;;;-144.05;75.43;125687.94;5058927;28;20116;-80
2023/01/09 09:36:22;;;;;;;5.40;0.70;;;7.10;99.90;;;-144.05;76.32;125687.94;5058401;28;20033;-80
2023/01/09 09:38:48;;;;;;;4.75;1.02;;;7.10;99.90;;;-144.05;76.45;125687.94;5058732;28;20036;-80
2023/01/09 09:45:33;;;;;;;6.03;1.30;;;7.00;99.90;;;-144.05;76.15;125687.94;5059150;28;20044;-82
2023/01/09 09:48:50;;;;;;;4.72;1.33;;;7.00;99.90;;;-144.05;76.86;125687.94;5040996;28;20420;-79
2023/01/09 09:51:52;;;;;;;4.85;1.35;;;7.00;99.90;;;-144.05;77.49;125687.94;5058636;28;20396;-81
2023/01/09 09:54:33;;;;;;;2.53;1.08;;;7.00;99.90;;;-144.05;78.15;125687.94;5033508;28;20044;-80
2023/01/09 09:57:05;;;;;;;4.07;1.65;;;7.00;99.90;;;-144.05;78.07;125687.94;5059399;28;20039;-79
2023/01/09 09:59:39;;;;;;;5.80;1.25;;;6.90;99.90;;;-144.05;78.06;125687.94;5058246;28;20025;-80
2023/01/09 10:02:38;;;;;;;4.60;2.10;;;6.90;99.90;;;-144.05;78.73;125687.94;5057938;28;20048;-79
2023/01/09 10:05:35;;;;;;;7.30;1.40;;;6.90;99.90;;;-144.05;78.96;125687.94;5058751;28;20033;-80
2023/01/09 10:08:35;;;;;;;7.22;1.20;;;6.90;99.90;;;-144.05;79.15;125687.94;5059804;28;20086;-77
2023/01/09 10:11:12;;;;;;;6.00;1.10;;;7.00;99.90;;;-144.05;79.05;125687.94;5050685;28;20037;-77
2023/01/09 10:17:10;;;;;;;4.40;1.30;;;6.90;99.90;;;-144.05;78.44;125687.94;5058056;28;20491;-76
2023/01/09 10:20:10;;;;;;;7.88;1.42;;;7.00;99.90;;;-144.05;78.93;125687.94;5052161;28;20397;-78
2023/01/09 10:23:13;;;;;;;5.35;1.45;;;7.10;99.90;;;-144.05;78.42;125687.94;5057473;28;20025;-78
2023/01/09 10:26:15;;;;;;;8.75;2.17;;;7.10;99.90;;;-144.05;78.03;125687.94;5057162;28;20056;-78
2023/01/09 10:29:54;;;;;;;6.13;1.67;;;7.10;99.90;;;-144.05;78.19;125687.94;5057271;28;20028;-80
2023/01/09 10:32:44;;;;;;;5.70;1.35;;;7.10;99.90;;;-144.05;78.26;125687.94;5039826;28;20514;-77
2023/01/09 10:35:57;;;;;;;5.60;1.50;;;7.10;99.90;;;-144.05;78.34;125687.94;5057020;28;20025;-78
2023/01/09 10:38:33;;;;;;;5.95;1.73;;;7.20;99.90;;;-144.05;77.81;125687.94;5056858;28;20036;-80
2023/01/09 10:41:26;;;;;;;6.47;1.80;;;7.20;99.90;;;-144.05;77.90;125687.94;5055712;28;20116;-80
2023/01/09 10:44:28;;;;;;;5.20;1.98;;;7.20;99.90;;;-144.05;77.49;125687.94;5057616;28;20106;-79
2023/01/09 10:47:00;;;;;;;4.22;1.65;;;7.30;99.90;;;-144.05;76.83;125687.94;5039146;28;20025;-77